createdAt,value
2019-04-18T00:04:53.095Z,0
2019-04-18T00:09:56.146Z,0
2019-04-18T00:14:52.492Z,0
2019-04-18T00:19:52.886Z,0
2019-04-18T00:24:53.076Z,0
2019-04-18T00:29:57.606Z,0
2019-04-18T00:34:52.768Z,0
2019-04-18T00:39:52.715Z,0
2019-04-18T00:44:52.850Z,0
2019-04-18T00:49:53.120Z,0
2019-04-18T00:54:55.111Z,0
2019-04-18T00:59:55.211Z,0
2019-04-18T01:04:52.538Z,0
2019-04-18T01:09:53.002Z,0
2019-04-18T01:14:52.980Z,0
2019-04-18T01:19:55.092Z,0
2019-04-18T01:24:52.705Z,0
2019-04-18T01:29:52.781Z,0
2019-04-18T01:34:52.727Z,0
2019-04-18T01:39:52.787Z,0
2019-04-18T01:44:52.810Z,0
2019-04-18T01:49:52.525Z,0
2019-04-18T01:54:52.822Z,0
2019-04-18T01:59:52.792Z,0
2019-04-18T02:05:00.712Z,0
2019-04-18T02:09:53.945Z,0
2019-04-18T02:14:52.410Z,0
2019-04-18T02:19:52.680Z,0
2019-04-18T02:24:52.534Z,0
2019-04-18T02:29:52.715Z,0
2019-04-18T02:34:53.252Z,0
2019-04-18T02:39:52.625Z,0
2019-04-18T02:44:52.765Z,0
2019-04-18T02:49:52.783Z,0
2019-04-18T02:54:52.631Z,0
2019-04-18T02:59:52.357Z,0
2019-04-18T03:04:53.450Z,0
2019-04-18T03:09:52.554Z,0
2019-04-18T03:14:52.875Z,0
2019-04-18T03:19:52.550Z,0
2019-04-18T03:24:52.474Z,0
2019-04-18T03:29:53.356Z,0
2019-04-18T03:34:52.403Z,0
2019-04-18T03:39:52.487Z,0
2019-04-18T03:44:52.455Z,0
2019-04-18T03:49:52.307Z,0
2019-04-18T03:54:52.373Z,0
2019-04-18T03:59:52.370Z,0
2019-04-18T04:04:55.066Z,0
2019-04-18T04:09:52.468Z,0
2019-04-18T04:14:52.556Z,0
2019-04-18T04:19:53.898Z,0
2019-04-18T04:24:52.578Z,0
2019-04-18T04:29:52.356Z,0
2019-04-18T04:34:52.535Z,0
2019-04-18T04:39:53.289Z,0
2019-04-18T04:44:52.146Z,0
2019-04-18T04:49:52.416Z,0
2019-04-18T04:54:52.431Z,0.8
2019-04-18T04:59:52.512Z,0.8
2019-04-18T05:04:54.685Z,1.7
2019-04-18T05:09:52.330Z,1.7
2019-04-18T05:14:52.336Z,2.5
2019-04-18T05:19:52.264Z,3.3
2019-04-18T05:24:52.523Z,4.2
2019-04-18T05:29:52.283Z,5
2019-04-18T05:34:52.185Z,5.8
2019-04-18T05:39:52.228Z,6.7
2019-04-18T05:44:52.133Z,7.5
2019-04-18T05:49:52.283Z,7.5
2019-04-18T05:54:52.139Z,8.3
2019-04-18T05:59:54.547Z,9.2
2019-04-18T06:04:52.307Z,9.2
2019-04-18T06:09:52.102Z,10.8
2019-04-18T06:14:52.066Z,11.7
2019-04-18T06:19:54.824Z,11.7
2019-04-18T06:24:52.259Z,12.5
2019-04-18T06:29:52.066Z,13.3
2019-04-18T06:34:52.049Z,13.3
2019-04-18T06:39:53.983Z,14.2
2019-04-18T06:44:52.199Z,14.2
2019-04-18T06:49:52.221Z,15
2019-04-18T06:54:52.428Z,16.7
2019-04-18T06:59:55.736Z,16.7
2019-04-18T07:04:52.190Z,17.5
2019-04-18T07:09:54.919Z,18.3
2019-04-18T07:14:52.287Z,18.3
2019-04-18T07:19:52.711Z,19.2
2019-04-18T07:24:52.355Z,19.2
2019-04-18T07:29:55.643Z,19.2
2019-04-18T07:34:52.278Z,20
2019-04-18T07:39:52.383Z,20
2019-04-18T07:44:52.391Z,20
2019-04-18T07:49:51.941Z,20.8
2019-04-18T07:54:52.163Z,20.8
2019-04-18T07:59:52.093Z,20.8
2019-04-18T08:04:52.009Z,20.8
2019-04-18T08:09:52.230Z,20.8
2019-04-18T08:14:52.112Z,20.8
2019-04-18T08:19:53.731Z,21.7
2019-04-18T08:24:52.067Z,21.7
2019-04-18T08:29:52.147Z,21.7
2019-04-18T08:34:52.187Z,21.7
2019-04-18T08:39:52.063Z,21.7
2019-04-18T08:44:55.366Z,21.7
2019-04-18T08:49:52.075Z,22.5
2019-04-18T08:54:51.963Z,22.5
2019-04-18T08:59:52.462Z,22.5
2019-04-18T09:04:54.468Z,23.3
2019-04-18T09:09:53.113Z,23.3
2019-04-18T09:14:52.152Z,23.3
2019-04-18T09:20:08.862Z,23.3
2019-04-18T09:24:52.256Z,23.3
2019-04-18T09:29:54.229Z,24.2
2019-04-18T09:34:52.046Z,24.2
2019-04-18T09:39:52.268Z,25
2019-04-18T09:44:53.823Z,25
2019-04-18T09:49:52.201Z,25.8
2019-04-18T09:54:51.897Z,26.7
2019-04-18T09:59:52.048Z,27.5
2019-04-18T10:04:51.989Z,26.7
2019-04-18T10:09:51.968Z,27.5
2019-04-18T10:14:51.859Z,27.5
2019-04-18T10:19:52.044Z,27.5
2019-04-18T10:24:51.925Z,27.5
2019-04-18T10:29:52.154Z,27.5
2019-04-18T10:34:53.304Z,27.5
2019-04-18T10:39:52.028Z,28.3
2019-04-18T10:44:51.919Z,28.3
2019-04-18T10:49:51.929Z,30.8
2019-04-18T10:54:51.633Z,33.3
2019-04-18T10:59:53.649Z,36.7
2019-04-18T11:04:51.784Z,40.8
2019-04-18T11:09:51.805Z,40
2019-04-18T11:14:51.906Z,43.3
2019-04-18T11:19:51.889Z,45
2019-04-18T11:24:51.654Z,45.8
2019-04-18T11:29:51.703Z,48.3
2019-04-18T11:34:51.818Z,42.5
2019-04-18T11:39:56.791Z,51.7
2019-04-18T11:44:51.541Z,52.5
2019-04-18T11:49:51.702Z,45.8
2019-04-18T11:54:51.881Z,45
2019-04-18T11:59:51.556Z,46.7
2019-04-18T12:04:51.632Z,56.7
2019-04-18T12:09:51.704Z,65
2019-04-18T12:14:51.727Z,73.3
2019-04-18T12:19:51.898Z,75
2019-04-18T12:24:51.509Z,80
2019-04-18T12:29:51.696Z,83.3
2019-04-18T12:34:51.907Z,84.2
2019-04-18T12:39:51.810Z,91.7
2019-04-18T12:44:51.594Z,87.5
2019-04-18T12:49:51.590Z,96.7
2019-04-18T12:54:51.656Z,99.2
2019-04-18T12:59:51.646Z,106.7
2019-04-18T13:04:51.807Z,109.2
2019-04-18T13:09:51.554Z,119.2
2019-04-18T13:14:53.947Z,116.7
2019-04-18T13:19:51.705Z,120.8
2019-04-18T13:24:51.590Z,126.7
2019-04-18T13:29:51.821Z,132.5
2019-04-18T13:34:51.340Z,131.7
2019-04-18T13:39:51.755Z,142.5
2019-04-18T13:44:51.453Z,140
2019-04-18T13:49:51.740Z,153.3
2019-04-18T13:54:51.702Z,161.7
2019-04-18T13:59:51.426Z,165
2019-04-18T14:04:51.872Z,158.3
2019-04-18T14:09:51.670Z,152.5
2019-04-18T14:14:51.729Z,142.5
2019-04-18T14:19:51.604Z,139.2
2019-04-18T14:24:51.344Z,140
2019-04-18T14:29:51.499Z,160.8
2019-04-18T14:34:51.459Z,155
2019-04-18T14:39:51.656Z,151.7
2019-04-18T14:44:51.217Z,94.2
2019-04-18T14:49:51.678Z,165
2019-04-18T14:54:51.329Z,152.5
2019-04-18T14:59:51.580Z,166.7
2019-04-18T15:04:52.388Z,189.2
2019-04-18T15:09:51.992Z,170
2019-04-18T15:14:51.688Z,160.8
2019-04-18T15:19:51.326Z,160.8
2019-04-18T15:24:51.383Z,160
2019-04-18T15:29:51.504Z,131.7
2019-04-18T15:34:51.623Z,131.7
2019-04-18T15:39:51.990Z,122.5
2019-04-18T15:44:52.169Z,85
2019-04-18T15:49:52.012Z,71.7
2019-04-18T15:54:51.496Z,53.3
2019-04-18T15:59:51.602Z,38.3
2019-04-18T16:04:51.305Z,34.2
2019-04-18T16:09:51.519Z,34.2
2019-04-18T16:14:51.404Z,25
2019-04-18T16:19:51.575Z,16.7
2019-04-18T16:24:51.435Z,16.7
2019-04-18T16:29:51.400Z,20
2019-04-18T16:34:51.438Z,18.3
2019-04-18T16:39:51.426Z,18.3
2019-04-18T16:44:51.256Z,18.3
2019-04-18T16:49:51.202Z,18.3
2019-04-18T16:54:51.273Z,15.8
2019-04-18T16:59:51.414Z,13.3
2019-04-18T17:04:51.445Z,12.5
2019-04-18T17:09:51.489Z,11.7
2019-04-18T17:14:51.084Z,10
2019-04-18T17:19:51.111Z,10.8
2019-04-18T17:24:51.148Z,10
2019-04-18T17:29:51.156Z,9.2
2019-04-18T17:34:57.088Z,7.5
2019-04-18T17:40:01.395Z,6.7
2019-04-18T17:44:55.190Z,5.8
2019-04-18T17:49:57.539Z,5
2019-04-18T17:55:13.148Z,5
2019-04-18T17:59:51.148Z,4.2
2019-04-18T18:05:00.876Z,3.3
2019-04-18T18:09:53.671Z,2.5
2019-04-18T18:14:56.162Z,2.5
2019-04-18T18:24:52.121Z,0.8
2019-04-18T18:29:53.677Z,0.8
2019-04-18T18:34:59.841Z,0
2019-04-18T18:39:52.495Z,0
2019-04-18T18:44:55.827Z,0
2019-04-18T18:49:51.935Z,0
2019-04-18T18:54:52.103Z,0
2019-04-18T18:59:56.769Z,0
2019-04-18T19:05:10.733Z,0
2019-04-18T19:10:05.656Z,0
2019-04-18T19:15:00.070Z,0
2019-04-18T19:19:51.880Z,0
2019-04-18T19:24:56.167Z,0
2019-04-18T19:29:59.155Z,0
2019-04-18T19:34:58.123Z,0
2019-04-18T19:40:17.062Z,0
2019-04-18T19:44:58.923Z,0
2019-04-18T19:49:50.984Z,0
2019-04-18T19:54:51.604Z,0
2019-04-18T19:59:51.356Z,0
2019-04-18T20:04:54.127Z,0
2019-04-18T20:10:03.211Z,0
2019-04-18T20:14:52.208Z,0
2019-04-18T20:19:51.299Z,0
2019-04-18T20:24:51.746Z,0
2019-04-18T20:29:52.428Z,0
2019-04-18T20:34:54.322Z,0
2019-04-18T20:40:13.005Z,0
2019-04-18T20:44:55.241Z,0
2019-04-18T20:50:02.776Z,0
2019-04-18T20:55:09.445Z,0
2019-04-18T20:59:51.180Z,0
2019-04-18T21:04:53.656Z,0
2019-04-18T21:09:59.693Z,0
2019-04-18T21:14:51.059Z,0
2019-04-18T21:19:52.137Z,0
2019-04-18T21:24:52.043Z,0
2019-04-18T21:29:51.829Z,0
2019-04-18T21:34:58.988Z,0
2019-04-18T21:39:50.898Z,0
2019-04-18T21:44:53.959Z,0
2019-04-18T21:49:51.090Z,0
2019-04-18T21:54:52.134Z,0
2019-04-18T22:00:00.767Z,0
2019-04-18T22:04:51.409Z,0
2019-04-18T22:09:51.957Z,0
2019-04-18T22:14:55.922Z,0
2019-04-18T22:19:51.479Z,0
2019-04-18T22:24:59.637Z,0
2019-04-18T22:29:55.931Z,0
2019-04-18T22:34:56.356Z,0
2019-04-18T22:39:50.863Z,0
2019-04-18T22:44:56.074Z,0
2019-04-18T22:49:52.515Z,0
2019-04-18T22:54:51.529Z,0
2019-04-18T22:59:53.866Z,0
2019-04-18T23:04:50.681Z,0
2019-04-18T23:09:53.811Z,0
2019-04-18T23:14:54.334Z,0
2019-04-18T23:19:53.057Z,0
2019-04-18T23:24:51.236Z,0
2019-04-18T23:29:52.422Z,0
2019-04-18T23:34:50.618Z,0
2019-04-18T23:39:52.312Z,0
2019-04-18T23:44:53.801Z,0
2019-04-18T23:49:50.713Z,0
2019-04-18T23:54:51.826Z,0
2019-04-18T23:59:50.951Z,0
